createdAt,value
2019-04-11T00:01:33.883Z,102009.64
2019-04-11T00:03:58.248Z,101999.42
2019-04-11T00:06:31.948Z,102013.82
2019-04-11T00:09:08.101Z,102023.78
2019-04-11T00:11:41.990Z,102023.78
2019-04-11T00:14:15.959Z,102026.75
2019-04-11T00:16:49.892Z,102026.75
2019-04-11T00:19:23.729Z,102020.95
2019-04-11T00:21:57.438Z,102026.25
2019-04-11T00:24:31.381Z,102025.33
2019-04-11T00:27:05.223Z,102025.33
2019-04-11T00:29:38.915Z,102028.00
2019-04-11T00:32:13.608Z,102025.29
2019-04-11T00:34:47.506Z,102025.29
2019-04-11T00:37:21.176Z,102029.87
2019-04-11T00:39:54.918Z,102029.87
2019-04-11T00:42:28.979Z,102033.97
2019-04-11T00:45:03.330Z,102033.16
2019-04-11T00:47:38.377Z,102035.53
2019-04-11T00:50:12.794Z,102036.11
2019-04-11T00:52:47.561Z,102031.38
2019-04-11T00:55:21.742Z,102012.73
2019-04-11T00:57:57.011Z,102033.43
2019-04-11T01:00:31.263Z,102033.43
2019-04-11T01:03:06.393Z,102030.27
2019-04-11T01:05:41.440Z,102030.91
2019-04-11T01:08:15.686Z,102027.81
2019-04-11T01:10:49.816Z,102027.81
2019-04-11T01:13:23.842Z,102036.59
2019-04-11T01:15:57.659Z,102025.22
2019-04-11T01:18:31.354Z,102038.23
2019-04-11T01:21:06.143Z,102040.45
2019-04-11T01:23:40.059Z,102047.91
2019-04-11T01:26:13.908Z,102046.11
2019-04-11T01:28:47.595Z,102046.11
2019-04-11T01:31:21.819Z,102052.91
2019-04-11T01:33:56.039Z,102052.91
2019-04-11T01:36:29.760Z,102063.48
2019-04-11T01:39:05.915Z,102062.17
2019-04-11T01:41:39.625Z,102060.02
2019-04-11T01:44:14.312Z,102042.27
2019-04-11T01:46:48.602Z,102063.28
2019-04-11T01:49:22.315Z,102063.28
2019-04-11T01:51:56.098Z,102067.55
2019-04-11T01:54:30.015Z,102063.34
2019-04-11T01:57:03.790Z,102071.44
2019-04-11T01:59:37.558Z,102071.44
2019-04-11T02:02:11.864Z,102067.88
2019-04-11T02:04:46.057Z,102070.78
2019-04-11T02:07:20.591Z,102071.80
2019-04-11T02:09:54.768Z,102072.80
2019-04-11T02:12:29.036Z,102072.80
2019-04-11T02:15:04.468Z,102075.85
2019-04-11T02:17:39.116Z,102075.85
2019-04-11T02:20:12.846Z,102082.11
2019-04-11T02:22:47.136Z,102083.53
2019-04-11T02:25:26.438Z,102083.53
2019-04-11T02:28:00.177Z,102084.61
2019-04-11T02:30:34.706Z,102079.21
2019-04-11T02:33:10.115Z,102070.02
2019-04-11T02:35:46.508Z,102070.02
2019-04-11T02:38:21.407Z,102086.47
2019-04-11T02:40:57.367Z,102085.22
2019-04-11T02:43:32.017Z,102085.22
2019-04-11T02:46:17.239Z,102094.28
2019-04-11T02:48:42.507Z,102093.30
2019-04-11T02:51:16.491Z,102092.08
2019-04-11T02:53:51.827Z,102091.31
2019-04-11T02:56:25.820Z,102091.31
2019-04-11T02:59:02.280Z,102086.41
2019-04-11T03:01:37.043Z,102083.95
2019-04-11T03:04:10.915Z,102086.02
2019-04-11T03:06:45.760Z,102087.73
2019-04-11T03:09:21.853Z,102089.27
2019-04-11T03:11:56.660Z,102090.23
2019-04-11T03:14:46.502Z,102090.23
2019-04-11T03:17:14.696Z,102090.92
2019-04-11T03:19:53.698Z,102090.92
2019-04-11T03:22:18.188Z,102093.29
2019-04-11T03:24:53.490Z,102093.29
2019-04-11T03:27:30.274Z,102096.95
2019-04-11T03:30:09.785Z,102091.79
2019-04-11T03:38:13.886Z,102098.37
2019-04-11T03:40:48.038Z,102100.25
2019-04-11T03:43:16.443Z,102100.25
2019-04-11T03:46:00.032Z,102106.33
2019-04-11T03:48:30.677Z,102106.11
2019-04-11T03:50:49.070Z,102116.28
2019-04-11T03:53:27.240Z,102118.22
2019-04-11T03:55:59.198Z,102120.69
2019-04-11T03:58:33.226Z,102120.12
2019-04-11T04:01:10.580Z,102119.22
2019-04-11T04:03:42.668Z,102121.13
2019-04-11T04:06:17.123Z,102121.13
2019-04-11T04:08:51.434Z,102128.34
2019-04-11T04:11:27.685Z,102125.39
2019-04-11T04:14:03.693Z,102127.41
2019-04-11T04:16:43.275Z,102122.34
2019-04-11T04:19:15.740Z,102130.34
2019-04-11T04:21:49.068Z,102130.34
2019-04-11T04:24:22.965Z,102131.86
2019-04-11T04:26:59.097Z,102130.64
2019-04-11T04:29:34.752Z,102136.70
2019-04-11T04:32:08.969Z,102137.88
2019-04-11T04:34:44.257Z,102138.00
2019-04-11T04:37:19.763Z,102144.48
2019-04-11T04:40:13.210Z,102145.03
2019-04-11T04:42:33.265Z,102150.77
2019-04-11T04:45:09.550Z,102150.77
2019-04-11T04:47:48.854Z,102143.52
2019-04-11T04:50:19.941Z,102156.70
2019-04-11T04:52:55.743Z,102160.35
2019-04-11T04:55:30.314Z,102158.95
2019-04-11T04:58:04.905Z,102158.95
2019-04-11T05:00:39.730Z,102166.22
2019-04-11T05:03:13.667Z,102168.17
2019-04-11T05:05:48.464Z,102154.30
2019-04-11T05:08:22.858Z,102178.90
2019-04-11T05:10:57.874Z,102178.09
2019-04-11T05:13:32.323Z,102172.17
2019-04-11T05:16:16.383Z,102175.35
2019-04-11T05:18:41.984Z,102175.35
2019-04-11T05:21:17.005Z,102186.64
2019-04-11T05:23:52.069Z,102179.53
2019-04-11T05:26:25.974Z,102187.36
2019-04-11T05:29:00.607Z,102185.46
2019-04-11T05:31:34.489Z,102185.46
2019-04-11T05:34:08.160Z,102188.88
2019-04-11T05:36:42.870Z,102190.91
2019-04-11T05:39:18.417Z,102190.91
2019-04-11T05:41:52.071Z,102195.39
2019-04-11T05:44:25.776Z,102198.98
2019-04-11T05:47:02.581Z,102198.98
2019-04-11T05:49:38.446Z,102200.16
2019-04-11T05:52:10.384Z,102200.77
2019-04-11T05:54:47.956Z,102201.62
2019-04-11T05:57:23.747Z,102205.09
2019-04-11T05:59:56.207Z,102188.48
2019-04-11T06:02:30.325Z,102207.19
2019-04-11T06:05:04.542Z,102214.39
2019-04-11T06:07:42.457Z,102214.39
2019-04-11T06:10:14.704Z,102217.23
2019-04-11T06:12:48.582Z,102210.89
2019-04-11T06:15:23.003Z,102195.27
2019-04-11T06:17:56.798Z,102220.30
2019-04-11T06:20:31.313Z,102221.03
2019-04-11T06:23:05.065Z,102225.72
2019-04-11T06:25:43.097Z,102225.72
2019-04-11T06:28:14.190Z,102227.36
2019-04-11T06:30:48.566Z,102209.68
2019-04-11T06:33:22.684Z,102224.48
2019-04-11T06:35:56.705Z,102231.16
2019-04-11T06:38:30.555Z,102235.62
2019-04-11T06:41:04.259Z,102231.28
2019-04-11T06:43:38.383Z,102229.50
2019-04-11T06:46:13.165Z,102227.88
2019-04-11T06:48:47.664Z,102227.88
2019-04-11T06:51:21.993Z,102232.81
2019-04-11T06:53:56.680Z,102235.31
2019-04-11T06:56:30.472Z,102237.80
2019-04-11T06:59:04.181Z,102222.81
2019-04-11T07:01:38.426Z,102238.80
2019-04-11T07:04:13.512Z,102238.80
2019-04-11T07:06:48.187Z,102244.12
2019-04-11T07:09:22.277Z,102236.77
2019-04-11T07:11:57.054Z,102243.71
2019-04-11T07:14:31.228Z,102243.71
2019-04-11T07:17:08.008Z,102240.69
2019-04-11T07:19:41.346Z,102240.69
2019-04-11T07:22:15.327Z,102240.58
2019-04-11T07:24:49.535Z,102239.03
2019-04-11T07:27:23.790Z,102239.03
2019-04-11T07:29:58.509Z,102247.08
2019-04-11T07:32:32.327Z,102247.08
2019-04-11T07:35:06.376Z,102244.39
2019-04-11T07:37:40.693Z,102251.30
2019-04-11T07:40:15.606Z,102250.72
2019-04-11T07:42:51.526Z,102250.72
2019-04-11T07:45:25.367Z,102256.81
2019-04-11T07:47:59.181Z,102251.08
2019-04-11T07:50:33.348Z,102250.80
2019-04-11T07:53:07.189Z,102251.13
2019-04-11T07:55:40.880Z,102251.13
2019-04-11T07:58:15.348Z,102259.37
2019-04-11T08:00:51.892Z,102261.83
2019-04-11T08:03:25.545Z,102261.75
2019-04-11T08:05:59.314Z,102264.84
2019-04-11T08:08:33.120Z,102264.84
2019-04-11T08:11:06.847Z,102269.61
2019-04-11T08:13:40.802Z,102278.38
2019-04-11T08:16:14.773Z,102278.38
2019-04-11T08:18:48.800Z,102273.41
2019-04-11T08:21:22.597Z,102276.48
2019-04-11T08:23:56.331Z,102281.11
2019-04-11T08:26:30.438Z,102276.26
2019-04-11T08:29:08.994Z,102280.89
2019-04-11T08:31:40.270Z,102272.05
2019-04-11T08:34:15.200Z,102272.05
2019-04-11T08:36:49.040Z,102281.53
2019-04-11T08:39:22.902Z,102279.44
2019-04-11T08:41:56.905Z,102286.73
2019-04-11T08:44:32.009Z,102264.88
2019-04-11T08:47:06.003Z,102287.87
2019-04-11T08:49:39.798Z,102287.87
2019-04-11T08:52:13.957Z,102283.51
2019-04-11T08:54:47.968Z,102284.20
2019-04-11T08:57:21.859Z,102284.20
2019-04-11T08:59:55.657Z,102290.16
2019-04-11T09:02:29.416Z,102288.50
2019-04-11T09:05:11.589Z,102288.50
2019-04-11T09:07:38.801Z,102272.30
2019-04-11T09:10:12.672Z,102280.50
2019-04-11T09:12:47.257Z,102280.38
2019-04-11T09:15:21.170Z,102275.72
2019-04-11T09:18:03.412Z,102275.72
2019-04-11T09:20:31.750Z,102283.58
2019-04-11T09:23:05.892Z,102290.42
2019-04-11T09:25:39.702Z,102274.90
2019-04-11T09:28:13.515Z,102281.64
2019-04-11T09:30:47.369Z,102281.64
2019-04-11T09:33:21.237Z,102280.16
2019-04-11T09:35:55.502Z,102280.16
2019-04-11T09:38:30.527Z,102278.53
2019-04-11T09:41:04.415Z,102277.59
2019-04-11T09:43:38.335Z,102276.75
2019-04-11T09:46:12.529Z,102276.75
2019-04-11T09:48:46.430Z,102274.59
2019-04-11T09:51:21.328Z,102252.22
2019-04-11T09:53:55.156Z,102252.22
2019-04-11T09:56:29.218Z,102277.16
2019-04-11T09:59:05.199Z,102270.23
2019-04-11T10:01:38.603Z,102270.23
2019-04-11T10:04:12.636Z,102272.50
2019-04-11T10:06:46.581Z,102272.08
2019-04-11T10:09:20.396Z,102278.24
2019-04-11T10:11:54.937Z,102277.98
2019-04-11T10:14:29.409Z,102277.98
2019-04-11T10:17:04.451Z,102279.41
2019-04-11T10:19:38.409Z,102279.41
2019-04-11T10:22:13.099Z,102282.25
2019-04-11T10:24:46.986Z,102285.02
2019-04-11T10:27:20.724Z,102285.02
2019-04-11T10:29:54.672Z,102280.77
2019-04-11T10:32:28.576Z,102280.77
2019-04-11T10:35:02.316Z,102277.48
2019-04-11T10:37:36.049Z,102273.64
2019-04-11T10:40:10.179Z,102273.27
2019-04-11T10:42:44.455Z,102272.23
2019-04-11T10:45:18.450Z,102272.23
2019-04-11T10:47:54.329Z,102275.92
2019-04-11T10:50:28.508Z,102275.71
2019-04-11T10:53:02.717Z,102272.95
2019-04-11T10:55:37.798Z,102270.22
2019-04-11T10:58:12.941Z,102270.22
2019-04-11T11:00:47.375Z,102272.10
2019-04-11T11:03:22.052Z,102270.62
2019-04-11T11:05:56.005Z,102272.09
2019-04-11T11:08:29.721Z,102273.20
2019-04-11T11:11:03.931Z,102273.20
2019-04-11T11:13:39.070Z,102271.30
2019-04-11T11:16:13.934Z,102271.30
2019-04-11T11:19:22.265Z,102278.95
2019-04-11T11:21:29.406Z,102278.95
2019-04-11T11:23:58.667Z,102281.86
2019-04-11T11:26:33.769Z,102280.81
2019-04-11T11:29:13.122Z,102296.81
2019-04-11T11:31:43.118Z,102287.75
2019-04-11T11:34:19.946Z,102284.96
2019-04-11T11:36:54.990Z,102278.82
2019-04-11T11:39:29.240Z,102282.17
2019-04-11T11:42:04.033Z,102277.59
2019-04-11T11:44:39.111Z,102293.70
2019-04-11T11:47:12.958Z,102286.84
2019-04-11T11:49:56.485Z,102286.84
2019-04-11T11:52:22.811Z,102276.77
2019-04-11T11:54:56.785Z,102276.77
2019-04-11T11:57:30.855Z,102285.05
2019-04-11T12:00:07.103Z,102286.33
2019-04-11T12:02:40.866Z,102279.31
2019-04-11T12:05:16.371Z,102279.31
2019-04-11T12:07:49.990Z,102279.02
2019-04-11T12:10:24.020Z,102277.87
2019-04-11T12:12:58.091Z,102277.87
2019-04-11T12:15:32.963Z,102280.36
2019-04-11T12:18:08.232Z,102280.36
2019-04-11T12:20:44.772Z,102282.98
2019-04-11T12:23:17.702Z,102276.64
2019-04-11T12:25:51.667Z,102278.13
2019-04-11T12:28:25.721Z,102277.89
2019-04-11T12:31:01.414Z,102277.89
2019-04-11T12:33:35.337Z,102282.64
2019-04-11T12:36:09.837Z,102282.64
2019-04-11T12:38:43.769Z,102274.02
2019-04-11T12:41:20.084Z,102284.26
2019-04-11T12:43:53.468Z,102281.46
2019-04-11T12:46:29.976Z,102271.58
2019-04-11T12:49:02.673Z,102271.58
2019-04-11T12:51:36.488Z,102273.63
2019-04-11T12:54:10.777Z,102273.63
2019-04-11T12:56:44.494Z,102278.30
2019-04-11T12:59:18.902Z,102274.88
2019-04-11T13:01:58.853Z,102266.94
2019-04-11T13:04:32.605Z,102273.00
2019-04-11T13:07:06.294Z,102269.31
2019-04-11T13:09:40.023Z,102270.67
2019-04-11T13:12:13.725Z,102270.67
2019-04-11T13:14:47.503Z,102274.45
2019-04-11T13:17:21.190Z,102271.30
2019-04-11T13:20:04.281Z,102271.05
2019-04-11T13:22:30.333Z,102271.05
2019-04-11T13:25:05.823Z,102254.38
2019-04-11T13:27:39.519Z,102253.98
2019-04-11T13:30:13.249Z,102248.53
2019-04-11T13:32:46.947Z,102238.53
2019-04-11T13:35:20.705Z,102237.20
2019-04-11T13:37:54.526Z,102248.62
2019-04-11T13:40:28.262Z,102253.09
2019-04-11T13:43:01.996Z,102248.62
2019-04-11T13:45:35.757Z,102240.25
2019-04-11T13:48:09.455Z,102240.25
2019-04-11T13:50:43.183Z,102243.20
2019-04-11T13:53:16.930Z,102243.34
2019-04-11T13:55:50.650Z,102243.34
2019-04-11T13:58:24.379Z,102238.30
2019-04-11T14:00:58.092Z,102234.41
2019-04-11T14:03:32.020Z,102234.41
2019-04-11T14:06:12.274Z,102237.16
2019-04-11T14:08:46.024Z,102230.03
2019-04-11T14:11:19.728Z,102230.03
2019-04-11T14:13:54.344Z,102225.53
2019-04-11T14:16:29.912Z,102229.30
2019-04-11T14:19:03.560Z,102227.97
2019-04-11T14:21:37.296Z,102225.09
2019-04-11T14:24:11.694Z,102221.45
2019-04-11T14:26:45.824Z,102217.52
2019-04-11T14:29:19.616Z,102223.61
2019-04-11T14:31:53.812Z,102219.19
2019-04-11T14:34:29.365Z,102210.09
2019-04-11T14:37:03.240Z,102210.09
2019-04-11T14:39:36.952Z,102212.41
2019-04-11T14:42:12.059Z,102217.58
2019-04-11T14:44:46.244Z,102217.58
2019-04-11T14:47:19.958Z,102215.20
2019-04-11T14:49:53.659Z,102215.20
2019-04-11T14:52:27.361Z,102210.45
2019-04-11T14:55:01.081Z,102210.45
2019-04-11T14:57:34.807Z,102210.28
2019-04-11T15:00:14.247Z,102206.34
2019-04-11T15:02:47.979Z,102211.42
2019-04-11T15:05:21.696Z,102211.42
2019-04-11T15:07:55.399Z,102211.53
2019-04-11T15:10:29.120Z,102214.50
2019-04-11T15:13:02.830Z,102210.94
2019-04-11T15:15:36.566Z,102211.78
2019-04-11T15:18:10.281Z,102209.51
2019-04-11T15:20:54.201Z,102209.51
2019-04-11T15:23:19.396Z,102216.71
2019-04-11T15:25:55.196Z,102216.71
2019-04-11T15:28:28.517Z,102209.88
2019-04-11T15:31:02.256Z,102221.08
2019-04-11T15:33:36.051Z,102210.20
2019-04-11T15:36:09.833Z,102216.35
2019-04-11T15:38:43.589Z,102216.56
2019-04-11T15:41:17.369Z,102216.56
2019-04-11T15:43:51.096Z,102219.09
2019-04-11T15:46:24.854Z,102214.97
2019-04-11T15:48:58.543Z,102212.77
2019-04-11T15:51:33.862Z,102214.22
2019-04-11T15:54:07.673Z,102214.22
2019-04-11T15:56:42.046Z,102207.72
2019-04-11T15:59:15.951Z,102206.84
2019-04-11T16:01:49.646Z,102211.47
2019-04-11T16:04:23.388Z,102211.47
2019-04-11T16:06:57.752Z,102207.47
2019-04-11T16:09:31.470Z,102209.34
2019-04-11T16:12:05.179Z,102209.34
2019-04-11T16:14:38.888Z,102204.42
2019-04-11T16:17:13.772Z,102204.42
2019-04-11T16:19:48.599Z,102205.37
2019-04-11T16:22:24.699Z,102208.52
2019-04-11T16:24:58.312Z,102212.58
2019-04-11T16:27:34.297Z,102211.06
2019-04-11T16:30:10.168Z,102211.06
2019-04-11T16:32:44.259Z,102218.20
2019-04-11T16:35:18.041Z,102218.20
2019-04-11T16:37:51.800Z,102220.16
2019-04-11T16:40:25.543Z,102222.80
2019-04-11T16:42:59.343Z,102228.56
2019-04-11T16:45:33.074Z,102228.56
2019-04-11T16:48:06.802Z,102221.18
2019-04-11T16:50:40.618Z,102221.18
2019-04-11T16:53:14.328Z,102226.95
2019-04-11T16:55:48.152Z,102226.95
2019-04-11T16:58:21.933Z,102227.98
2019-04-11T17:00:55.663Z,102228.68
2019-04-11T17:03:29.427Z,102231.28
2019-04-11T17:06:03.191Z,102245.45
2019-04-11T17:08:36.968Z,102245.45
2019-04-11T17:11:10.687Z,102241.05
2019-04-11T17:13:44.499Z,102241.05
2019-04-11T17:16:18.248Z,102247.78
2019-04-11T17:18:52.059Z,102247.78
2019-04-11T17:21:25.774Z,102241.91
2019-04-11T17:23:59.513Z,102240.88
2019-04-11T17:26:33.308Z,102240.88
2019-04-11T17:29:07.031Z,102249.85
2019-04-11T17:31:40.769Z,102249.85
2019-04-11T17:34:14.537Z,102259.33
2019-04-11T17:36:48.409Z,102262.30
2019-04-11T17:39:22.153Z,102264.32
2019-04-11T17:41:55.854Z,102265.48
2019-04-11T17:44:29.585Z,102265.13
2019-04-11T17:47:03.322Z,102264.01
2019-04-11T17:49:37.147Z,102268.66
2019-04-11T17:52:10.851Z,102269.38
2019-04-11T17:54:44.620Z,102267.16
2019-04-11T17:57:18.469Z,102272.47
2019-04-11T17:59:59.125Z,102273.21
2019-04-11T18:02:33.575Z,102280.55
2019-04-11T18:05:07.308Z,102279.64
2019-04-11T18:07:41.512Z,102284.11
2019-04-11T18:10:15.403Z,102284.11
2019-04-11T18:12:49.133Z,102281.60
2019-04-11T18:15:22.942Z,102285.88
2019-04-11T18:17:56.750Z,102285.88
2019-04-11T18:20:30.690Z,102292.47
2019-04-11T18:23:04.405Z,102300.94
2019-04-11T18:25:38.256Z,102302.44
2019-04-11T18:28:12.450Z,102302.44
2019-04-11T18:30:46.272Z,102311.20
2019-04-11T18:33:20.055Z,102312.49
2019-04-11T18:35:53.826Z,102305.77
2019-04-11T18:38:27.605Z,102311.43
2019-04-11T18:41:03.017Z,102314.57
2019-04-11T18:43:36.767Z,102324.27
2019-04-11T18:46:10.524Z,102330.25
2019-04-11T18:48:44.256Z,102329.55
2019-04-11T18:51:18.296Z,102329.55
2019-04-11T18:53:52.054Z,102339.53
2019-04-11T18:56:25.833Z,102339.53
2019-04-11T18:59:03.466Z,102338.48
2019-04-11T19:01:39.240Z,102344.58
2019-04-11T19:04:12.129Z,102349.20
2019-04-11T19:06:45.879Z,102350.94
2019-04-11T19:09:19.641Z,102351.02
2019-04-11T19:11:53.423Z,102356.20
2019-04-11T19:14:27.178Z,102356.20
2019-04-11T19:17:00.888Z,102356.87
2019-04-11T19:19:34.626Z,102358.28
2019-04-11T19:22:08.353Z,102359.72
2019-04-11T19:24:42.470Z,102359.72
2019-04-11T19:27:20.268Z,102364.87
2019-04-11T19:29:55.597Z,102369.54
2019-04-11T19:32:27.189Z,102369.54
2019-04-11T19:35:00.932Z,102364.95
2019-04-11T19:37:34.656Z,102364.46
2019-04-11T19:40:10.049Z,102364.46
2019-04-11T19:42:44.057Z,102359.77
2019-04-11T19:45:19.618Z,102359.77
2019-04-11T19:47:53.363Z,102361.61
2019-04-11T19:50:29.060Z,102368.80
2019-04-11T19:53:03.416Z,102368.70
2019-04-11T19:55:37.327Z,102364.93
2019-04-11T19:58:11.048Z,102371.28
2019-04-11T20:00:47.282Z,102371.41
2019-04-11T20:03:21.846Z,102367.70
2019-04-11T20:05:55.791Z,102367.70
2019-04-11T20:08:29.522Z,102368.13
2019-04-11T20:11:03.276Z,102368.13
2019-04-11T20:13:37.013Z,102372.05
2019-04-11T20:16:12.563Z,102371.92
2019-04-11T20:18:51.238Z,102371.92
2019-04-11T20:21:21.643Z,102368.58
2019-04-11T20:23:55.499Z,102369.51
2019-04-11T20:26:29.294Z,102373.91
2019-04-11T20:29:03.015Z,102373.94
2019-04-11T20:31:36.732Z,102373.94
2019-04-11T20:34:10.457Z,102373.74
2019-04-11T20:36:44.162Z,102357.22
2019-04-11T20:39:17.982Z,102379.18
2019-04-11T20:41:53.531Z,102377.62
2019-04-11T20:44:28.083Z,102377.62
2019-04-11T20:47:02.065Z,102377.80
2019-04-11T20:49:35.889Z,102378.53
2019-04-11T20:52:09.730Z,102379.37
2019-04-11T20:54:45.275Z,102376.37
2019-04-11T20:57:25.520Z,102379.26
2019-04-11T20:59:54.624Z,102369.05
2019-04-11T21:02:29.117Z,102377.96
2019-04-11T21:05:03.194Z,102381.37
2019-04-11T21:07:39.057Z,102383.28
2019-04-11T21:10:12.289Z,102389.20
2019-04-11T21:12:45.979Z,102381.59
2019-04-11T21:15:20.239Z,102381.59
2019-04-11T21:17:56.100Z,102395.94
2019-04-11T21:20:30.570Z,102387.22
2019-04-11T21:23:04.280Z,102394.95
2019-04-11T21:25:37.975Z,102389.94
2019-04-11T21:28:12.145Z,102389.94
2019-04-11T21:30:45.863Z,102406.87
2019-04-11T21:33:19.561Z,102397.53
2019-04-11T21:35:53.284Z,102404.30
2019-04-11T21:38:28.180Z,102393.55
2019-04-11T21:41:05.959Z,102393.55
2019-04-11T21:43:37.829Z,102401.80
2019-04-11T21:46:12.132Z,102401.80
2019-04-11T21:48:45.849Z,102407.30
2019-04-11T21:51:19.577Z,102402.11
2019-04-11T21:53:53.274Z,102402.11
2019-04-11T21:56:26.979Z,102401.77
2019-04-11T21:59:00.676Z,102403.20
2019-04-11T22:01:34.366Z,102402.92
2019-04-11T22:04:08.339Z,102410.75
2019-04-11T22:06:42.052Z,102410.75
2019-04-11T22:09:15.752Z,102403.20
2019-04-11T22:11:49.481Z,102403.20
2019-04-11T22:14:23.222Z,102409.70
2019-04-11T22:16:56.938Z,102405.00
2019-04-11T22:19:30.952Z,102408.75
2019-04-11T22:22:04.663Z,102408.75
2019-04-11T22:24:38.365Z,102408.53
2019-04-11T22:27:12.427Z,102408.53
2019-04-11T22:29:46.143Z,102401.48
2019-04-11T22:32:19.837Z,102392.65
2019-04-11T22:34:53.541Z,102412.06
2019-04-11T22:37:27.806Z,102412.06
2019-04-11T22:40:04.505Z,102415.34
2019-04-11T22:42:38.220Z,102415.34
2019-04-11T22:45:12.461Z,102418.02
2019-04-11T22:47:46.164Z,102418.52
2019-04-11T22:50:19.870Z,102415.34
2019-04-11T22:52:53.575Z,102415.34
2019-04-11T22:55:27.298Z,102417.72
2019-04-11T22:58:00.986Z,102413.09
2019-04-11T23:00:34.686Z,102421.61
2019-04-11T23:03:08.414Z,102421.61
2019-04-11T23:05:42.102Z,102419.33
2019-04-11T23:08:18.736Z,102406.83
2019-04-11T23:10:51.197Z,102415.09
2019-04-11T23:13:25.065Z,102413.31
2019-04-11T23:15:58.751Z,102421.38
2019-04-11T23:18:32.532Z,102421.38
2019-04-11T23:21:06.214Z,102426.58
2019-04-11T23:23:39.885Z,102420.45
2019-04-11T23:26:13.587Z,102420.41
2019-04-11T23:28:47.285Z,102415.91
2019-04-11T23:31:21.153Z,102416.85
2019-04-11T23:33:54.868Z,102422.30
2019-04-11T23:36:28.569Z,102419.36
2019-04-11T23:39:02.277Z,102422.06
2019-04-11T23:41:35.982Z,102424.45
2019-04-11T23:44:09.683Z,102424.45
2019-04-11T23:46:43.398Z,102422.03
2019-04-11T23:49:17.093Z,102429.08
2019-04-11T23:51:50.803Z,102430.37
2019-04-11T23:54:24.503Z,102427.22
2019-04-11T23:57:00.570Z,102427.22
2019-04-11T23:59:33.622Z,102426.77
